Time;durP1;ratioP1;P1;durP2;ratioP2;P2;SDS_P1;SDS_P2;PMS_P1;PMS_P2;Temp;Humidity;BMP_temperature;BMP_pressure;BME280_temperature;BME280_humidity;BME280_pressure;Samples;Min_cycle;Max_cycle;Signal;HPM_P1;HPM_P2
2021/07/05 00:01:27;;;;;;;;;;;17.10;99.90;;;;;;5092179;28;19967;-91
2021/07/05 00:03:53;;;;;;;;;;;17.10;99.90;;;;;;5090567;28;19967;-91
2021/07/05 00:06:19;;;;;;;;;;;17.00;99.90;;;;;;5058923;28;19958;-91
2021/07/05 00:08:44;;;;;;;;;;;17.00;99.90;;;;;;5071397;28;19935;-91
2021/07/05 00:11:10;;;;;;;;;;;17.00;99.90;;;;;;5071164;28;19920;-91
2021/07/05 00:13:36;;;;;;;;;;;17.00;99.90;;;;;;5074638;28;20010;-91
2021/07/05 00:16:02;;;;;;;;;;;17.00;99.90;;;;;;5109086;28;20019;-91
2021/07/05 00:18:28;;;;;;;;;;;17.00;99.90;;;;;;5085375;28;20019;-92
2021/07/05 00:20:53;;;;;;;;;;;17.00;99.90;;;;;;5038553;28;20282;-91
2021/07/05 00:23:19;;;;;;;;;;;17.10;99.90;;;;;;5107443;28;19925;-91
2021/07/05 00:25:45;;;;;;;;;;;17.00;99.90;;;;;;5091718;28;20022;-91
2021/07/05 00:28:11;;;;;;;;;;;17.00;99.90;;;;;;5058179;28;20240;-90
2021/07/05 00:30:37;;;;;;;;;;;17.10;99.90;;;;;;5092307;28;19927;-91
2021/07/05 00:33:03;;;;;;;;;;;17.00;99.90;;;;;;5074752;28;19916;-91
2021/07/05 00:35:29;;;;;;;;;;;17.00;99.90;;;;;;5091008;28;19938;-91
2021/07/05 00:37:56;;;;;;;;;;;17.00;99.90;;;;;;5091149;28;20023;-91
2021/07/05 00:40:22;;;;;;;;;;;16.90;99.90;;;;;;5074434;28;19920;-91
2021/07/05 00:42:49;;;;;;;;;;;16.90;99.90;;;;;;5074683;28;19920;-91
2021/07/05 00:45:15;;;;;;;;;;;16.90;99.90;;;;;;5092183;28;19920;-91
2021/07/05 00:47:41;;;;;;;;;;;16.90;99.90;;;;;;5092158;28;19920;-92
2021/07/05 00:50:08;;;;;;;;;;;16.90;99.90;;;;;;5097927;28;19932;-92
2021/07/05 00:52:35;;;;;;;;;;;16.90;99.90;;;;;;5091638;28;19924;-92
2021/07/05 00:55:01;;;;;;;;;;;16.90;99.90;;;;;;5074279;28;19931;-91
2021/07/05 00:57:28;;;;;;;;;;;16.80;99.90;;;;;;5074724;28;19927;-92
2021/07/05 00:59:55;;;;;;;;;;;16.80;99.90;;;;;;5074364;28;19921;-91
2021/07/05 01:02:22;;;;;;;;;;;16.80;99.90;;;;;;5074785;28;20435;-91
2021/07/05 01:04:47;;;;;;;;;;;16.80;99.90;;;;;;5090613;28;19920;-91
2021/07/05 01:07:13;;;;;;;;;;;16.80;99.90;;;;;;5090688;28;19920;-91
2021/07/05 01:09:40;;;;;;;;;;;16.70;99.90;;;;;;5090641;28;19924;-91
2021/07/05 01:12:06;;;;;;;;;;;16.70;99.90;;;;;;5074475;28;20489;-91
2021/07/05 01:14:32;;;;;;;;;;;16.60;99.90;;;;;;5074360;28;19928;-91
2021/07/05 01:16:58;;;;;;;;;;;16.60;99.90;;;;;;5078665;28;19920;-92
2021/07/05 01:19:24;;;;;;;;;;;16.60;99.90;;;;;;5095347;28;19928;-91
2021/07/05 01:21:50;;;;;;;;;;;16.60;99.90;;;;;;5094981;28;19923;-90
2021/07/05 01:24:15;;;;;;;;;;;16.60;99.90;;;;;;5077403;28;19924;-91
2021/07/05 01:26:41;;;;;;;;;;;16.60;99.90;;;;;;5077957;28;19927;-91
2021/07/05 01:29:07;;;;;;;;;;;16.70;99.90;;;;;;5078267;28;20295;-92
2021/07/05 01:31:34;;;;;;;;;;;16.70;99.90;;;;;;5095123;28;20387;-92
2021/07/05 01:34:01;;;;;;;;;;;16.70;99.90;;;;;;5096292;28;20333;-91
2021/07/05 01:36:27;;;;;;;;;;;16.70;99.90;;;;;;5061101;28;19947;-91
2021/07/05 01:38:53;;;;;;;;;;;16.70;99.90;;;;;;5094849;28;19930;-91
2021/07/05 01:41:20;;;;;;;;;;;16.70;99.90;;;;;;5094451;28;20006;-92
2021/07/05 01:43:46;;;;;;;;;;;16.70;99.90;;;;;;5078137;28;19928;-91
2021/07/05 01:46:12;;;;;;;;;;;16.60;99.90;;;;;;5094512;28;19922;-91
2021/07/05 01:48:38;;;;;;;;;;;16.60;99.90;;;;;;5078006;28;20023;-91
2021/07/05 01:51:03;;;;;;;;;;;16.60;99.90;;;;;;5093720;28;20019;-90
2021/07/05 01:53:30;;;;;;;;;;;16.50;99.90;;;;;;5077953;28;19924;-91
2021/07/05 01:55:55;;;;;;;;;;;16.60;99.90;;;;;;5094254;28;19920;-91
2021/07/05 01:58:22;;;;;;;;;;;16.50;99.90;;;;;;5094840;28;20023;-92
2021/07/05 02:00:48;;;;;;;;;;;16.50;99.90;;;;;;5094741;28;19916;-91
2021/07/05 02:03:14;;;;;;;;;;;16.50;99.90;;;;;;5074057;28;19920;-91
2021/07/05 02:05:40;;;;;;;;;;;16.50;99.90;;;;;;5093826;28;20005;-92
2021/07/05 02:08:06;;;;;;;;;;;16.50;99.90;;;;;;5077457;28;19927;-91
2021/07/05 02:10:33;;;;;;;;;;;16.50;99.90;;;;;;5094264;28;20386;-91
2021/07/05 02:13:01;;;;;;;;;;;16.50;99.90;;;;;;5094717;28;20667;-92
2021/07/05 02:15:26;;;;;;;;;;;16.50;99.90;;;;;;5093768;28;19920;-91
2021/07/05 02:17:52;;;;;;;;;;;16.50;99.90;;;;;;5093989;28;19920;-92
2021/07/05 02:20:19;;;;;;;;;;;16.50;99.90;;;;;;5093424;28;19928;-91
2021/07/05 02:22:46;;;;;;;;;;;16.50;99.90;;;;;;5094295;28;19924;-91
2021/07/05 02:25:13;;;;;;;;;;;16.50;99.90;;;;;;5092624;28;19951;-90
2021/07/05 02:27:40;;;;;;;;;;;16.50;99.90;;;;;;5107699;28;19930;-91
2021/07/05 02:30:07;;;;;;;;;;;16.50;99.90;;;;;;5127658;27;19924;-91
2021/07/05 02:32:32;;;;;;;;;;;16.50;99.90;;;;;;5077509;28;20379;-92
2021/07/05 02:34:58;;;;;;;;;;;16.50;99.90;;;;;;5076770;28;19977;-91
2021/07/05 02:37:24;;;;;;;;;;;16.40;99.90;;;;;;5093381;28;19971;-91
2021/07/05 02:39:50;;;;;;;;;;;16.40;99.90;;;;;;5076865;28;20027;-91
2021/07/05 02:42:16;;;;;;;;;;;16.30;99.90;;;;;;5092915;28;19958;-90
2021/07/05 02:44:41;;;;;;;;;;;16.30;99.90;;;;;;5060574;28;19951;-91
2021/07/05 02:47:07;;;;;;;;;;;16.30;99.90;;;;;;5072565;28;19956;-91
2021/07/05 02:49:33;;;;;;;;;;;16.30;99.90;;;;;;5106991;28;20364;-91
2021/07/05 02:51:59;;;;;;;;;;;16.30;99.90;;;;;;5073345;28;19966;-91
2021/07/05 02:54:24;;;;;;;;;;;16.30;99.90;;;;;;5076801;28;19920;-91
2021/07/05 02:56:50;;;;;;;;;;;16.30;99.90;;;;;;5076218;28;19920;-92
2021/07/05 02:59:16;;;;;;;;;;;16.30;99.90;;;;;;5075917;28;19951;-92
2021/07/05 03:01:41;;;;;;;;;;;16.20;99.90;;;;;;5093086;28;19983;-91
2021/07/05 03:04:07;;;;;;;;;;;16.20;99.90;;;;;;5093000;28;19924;-91
2021/07/05 03:06:33;;;;;;;;;;;16.20;99.90;;;;;;5076166;28;20268;-92
2021/07/05 03:08:59;;;;;;;;;;;16.20;99.90;;;;;;5075995;28;19928;-91
2021/07/05 03:11:24;;;;;;;;;;;16.20;99.90;;;;;;5092746;28;19924;-91
2021/07/05 03:13:50;;;;;;;;;;;16.20;99.90;;;;;;5076202;28;19924;-91
2021/07/05 03:16:16;;;;;;;;;;;16.20;99.90;;;;;;5092332;28;19969;-92
2021/07/05 03:18:42;;;;;;;;;;;16.20;99.90;;;;;;5075890;28;19930;-91
2021/07/05 03:21:07;;;;;;;;;;;16.30;99.90;;;;;;5092938;28;19931;-91
2021/07/05 03:23:33;;;;;;;;;;;16.30;99.90;;;;;;5093447;28;19916;-91
2021/07/05 03:25:59;;;;;;;;;;;16.30;99.90;;;;;;5092409;28;19930;-92
2021/07/05 03:28:24;;;;;;;;;;;16.30;99.90;;;;;;5075675;28;19928;-92
2021/07/05 03:30:51;;;;;;;;;;;16.30;99.90;;;;;;5092872;28;19927;-91
2021/07/05 03:33:17;;;;;;;;;;;16.20;99.90;;;;;;5092564;28;20402;-91
2021/07/05 03:35:44;;;;;;;;;;;16.10;99.90;;;;;;5075161;28;19920;-91
2021/07/05 03:38:10;;;;;;;;;;;16.10;99.90;;;;;;5075239;28;19930;-91
2021/07/05 03:40:37;;;;;;;;;;;16.10;99.90;;;;;;5091809;28;20295;-92
2021/07/05 03:43:03;;;;;;;;;;;16.10;99.90;;;;;;5091259;28;20435;-90
2021/07/05 03:45:30;;;;;;;;;;;16.10;99.90;;;;;;5074931;28;20003;-91
2021/07/05 03:47:57;;;;;;;;;;;16.20;99.90;;;;;;5091248;28;19924;-91
2021/07/05 03:50:23;;;;;;;;;;;16.20;99.90;;;;;;5093178;28;20391;-91
2021/07/05 03:52:49;;;;;;;;;;;16.30;99.90;;;;;;5071774;28;19924;-92
2021/07/05 03:55:16;;;;;;;;;;;16.30;99.90;;;;;;5106537;28;19946;-91
2021/07/05 03:57:43;;;;;;;;;;;16.30;99.90;;;;;;5091584;28;19920;-91
2021/07/05 04:00:10;;;;;;;;;;;16.30;99.90;;;;;;5074704;28;19916;-91
2021/07/05 04:02:36;;;;;;;;;;;16.30;99.90;;;;;;5091500;28;19931;-91
2021/07/05 04:05:02;;;;;;;;;;;16.30;99.90;;;;;;5074584;28;20030;-91
2021/07/05 04:07:28;;;;;;;;;;;16.30;99.90;;;;;;5108228;28;19920;-92
2021/07/05 04:09:54;;;;;;;;;;;16.30;99.90;;;;;;5074321;28;19973;-91
2021/07/05 04:12:20;;;;;;;;;;;16.20;99.90;;;;;;5074411;28;19963;-90
2021/07/05 04:14:46;;;;;;;;;;;16.30;99.90;;;;;;5090963;28;19989;-91
2021/07/05 04:17:12;;;;;;;;;;;16.30;99.90;;;;;;5074037;28;19920;-91
2021/07/05 04:19:38;;;;;;;;;;;16.40;99.90;;;;;;5074248;28;19916;-92
2021/07/05 04:22:03;;;;;;;;;;;16.40;99.90;;;;;;5076598;28;20013;-91
2021/07/05 04:24:29;;;;;;;;;;;16.40;99.90;;;;;;5073628;28;19923;-92
2021/07/05 04:26:55;;;;;;;;;;;16.40;99.90;;;;;;5073875;28;20506;-92
2021/07/05 04:29:21;;;;;;;;;;;16.40;99.90;;;;;;5073065;28;19934;-91
2021/07/05 04:31:46;;;;;;;;;;;16.40;99.90;;;;;;5090058;28;20291;-91
2021/07/05 04:34:12;;;;;;;;;;;16.40;99.90;;;;;;5091068;28;19924;-92
2021/07/05 04:36:38;;;;;;;;;;;16.40;99.90;;;;;;5073792;28;20387;-91
2021/07/05 04:39:04;;;;;;;;;;;16.40;99.90;;;;;;5089679;28;19926;-91
2021/07/05 04:41:31;;;;;;;;;;;16.30;99.90;;;;;;5090036;28;19928;-92
2021/07/05 04:43:57;;;;;;;;;;;16.30;99.90;;;;;;5089870;28;19920;-92
2021/07/05 04:46:24;;;;;;;;;;;16.30;99.90;;;;;;5056926;28;19947;-93
2021/07/05 04:48:50;;;;;;;;;;;16.30;99.90;;;;;;5090076;28;19935;-91
2021/07/05 04:51:18;;;;;;;;;;;16.30;99.90;;;;;;5068372;28;19936;-90
2021/07/05 04:53:43;;;;;;;;;;;16.20;99.90;;;;;;5081593;28;19927;-91
2021/07/05 04:56:09;;;;;;;;;;;16.20;99.90;;;;;;5077776;28;19920;-91
2021/07/05 04:58:37;;;;;;;;;;;16.20;99.90;;;;;;5058337;28;20022;-91
2021/07/05 05:01:03;;;;;;;;;;;16.20;99.90;;;;;;5057377;28;19955;-91
2021/07/05 05:03:29;;;;;;;;;;;16.20;99.90;;;;;;5059286;28;19974;-91
2021/07/05 05:05:55;;;;;;;;;;;16.20;99.90;;;;;;5091114;28;19924;-94
2021/07/05 05:08:20;;;;;;;;;;;16.20;99.90;;;;;;5069798;28;19929;-95
2021/07/05 05:10:46;;;;;;;;;;;16.20;99.90;;;;;;5069689;28;19935;-94
2021/07/05 05:13:12;;;;;;;;;;;16.20;99.90;;;;;;5052742;28;20383;-94
2021/07/05 05:15:38;;;;;;;;;;;16.20;99.90;;;;;;5072642;28;19920;-93
2021/07/05 05:18:04;;;;;;;;;;;16.10;99.90;;;;;;5089286;28;19928;-90
2021/07/05 05:20:30;;;;;;;;;;;16.10;99.90;;;;;;5087873;28;20387;-91
2021/07/05 05:22:55;;;;;;;;;;;16.10;99.90;;;;;;5088961;28;19939;-92
2021/07/05 05:25:21;;;;;;;;;;;16.10;99.90;;;;;;5054874;28;19931;-92
2021/07/05 05:27:48;;;;;;;;;;;16.10;99.90;;;;;;5071203;28;19928;-91
2021/07/05 05:30:15;;;;;;;;;;;16.00;99.90;;;;;;5088178;28;19967;-92
2021/07/05 05:32:41;;;;;;;;;;;15.90;99.90;;;;;;5090169;28;19924;-92
2021/07/05 05:35:06;;;;;;;;;;;15.90;99.90;;;;;;5071214;28;19924;-92
2021/07/05 05:37:33;;;;;;;;;;;15.70;99.90;;;;;;5087736;28;20383;-91
2021/07/05 05:39:59;;;;;;;;;;;15.70;99.90;;;;;;5072031;28;19920;-92
2021/07/05 05:42:25;;;;;;;;;;;15.70;99.90;;;;;;5072139;28;19934;-91
2021/07/05 05:44:51;;;;;;;;;;;15.70;99.90;;;;;;5088715;28;19924;-91
2021/07/05 05:47:17;;;;;;;;;;;15.70;99.90;;;;;;5070319;28;19924;-91
2021/07/05 05:49:42;;;;;;;;;;;15.70;99.90;;;;;;5123007;28;19946;-92
2021/07/05 05:52:08;;;;;;;;;;;15.70;99.90;;;;;;5072176;28;20302;-91
2021/07/05 05:54:34;;;;;;;;;;;15.60;99.90;;;;;;5088739;28;19926;-90
2021/07/05 05:57:00;;;;;;;;;;;15.70;99.90;;;;;;5072328;28;19931;-92
2021/07/05 05:59:26;;;;;;;;;;;15.60;99.90;;;;;;5089012;28;19928;-93
2021/07/05 06:01:52;;;;;;;;;;;15.60;99.90;;;;;;5058111;28;20018;-92
2021/07/05 06:04:18;;;;;;;;;;;15.60;99.90;;;;;;5092857;28;19920;-92
2021/07/05 06:06:44;;;;;;;;;;;15.60;99.90;;;;;;5092884;28;20398;-91
2021/07/05 06:09:10;;;;;;;;;;;15.60;99.90;;;;;;5075827;28;19928;-91
2021/07/05 06:11:37;;;;;;;;;;;15.50;99.90;;;;;;5075331;28;19931;-91
2021/07/05 06:14:04;;;;;;;;;;;15.50;99.90;;;;;;5092749;28;19920;-92
2021/07/05 06:16:30;;;;;;;;;;;15.40;99.90;;;;;;5059171;28;20405;-92
2021/07/05 06:18:56;;;;;;;;;;;15.40;99.90;;;;;;5059512;28;20024;-92
2021/07/05 06:21:22;;;;;;;;;;;15.40;99.90;;;;;;5075138;28;19922;-91
2021/07/05 06:23:49;;;;;;;;;;;15.40;99.90;;;;;;5093649;28;19924;-91
2021/07/05 06:26:15;;;;;;;;;;;15.40;99.90;;;;;;5092680;28;19930;-92
2021/07/05 06:28:41;;;;;;;;;;;15.40;99.90;;;;;;5058396;28;19928;-92
2021/07/05 06:31:07;;;;;;;;;;;15.40;99.90;;;;;;5126675;27;19948;-92
2021/07/05 06:33:33;;;;;;;;;;;15.50;99.90;;;;;;5093415;28;20068;-93
2021/07/05 06:35:59;;;;;;;;;;;15.60;99.90;;;;;;5093199;28;19927;-92
2021/07/05 06:38:25;;;;;;;;;;;15.60;99.90;;;;;;5092385;28;20398;-93
2021/07/05 06:40:52;;;;;;;;;;;15.70;99.90;;;;;;5058324;28;19920;-92
2021/07/05 06:43:19;;;;;;;;;;;15.80;99.90;;;;;;5075369;28;19924;-92
2021/07/05 06:45:44;;;;;;;;;;;15.70;99.90;;;;;;5092312;28;20376;-91
2021/07/05 06:48:10;;;;;;;;;;;15.70;99.90;;;;;;5071460;28;19931;-90
2021/07/05 06:50:37;;;;;;;;;;;15.70;99.90;;;;;;5091176;28;19927;-92
2021/07/05 06:53:02;;;;;;;;;;;15.70;99.90;;;;;;5126122;27;19982;-91
2021/07/05 06:55:28;;;;;;;;;;;15.60;99.90;;;;;;5092083;28;19955;-92
2021/07/05 06:57:54;;;;;;;;;;;15.60;99.90;;;;;;5074441;28;19926;-91
2021/07/05 07:00:21;;;;;;;;;;;15.50;99.90;;;;;;5091523;28;20015;-92
2021/07/05 07:02:48;;;;;;;;;;;15.50;99.90;;;;;;5091494;28;20442;-92
2021/07/05 07:05:15;;;;;;;;;;;15.50;99.90;;;;;;5090988;28;19924;-91
2021/07/05 07:07:41;;;;;;;;;;;15.50;99.90;;;;;;5091527;28;20080;-92
2021/07/05 07:10:07;;;;;;;;;;;15.60;99.90;;;;;;5080823;28;20379;-92
2021/07/05 07:12:37;;;;;;;;;;;15.60;99.90;;;;;;5074054;28;19924;-93
2021/07/05 07:15:07;;;;;;;;;;;15.70;99.90;;;;;;5091354;28;19916;-92
2021/07/05 07:20:03;;;;;;;;;;;15.80;99.90;;;;;;5090993;28;19959;-93
2021/07/05 07:22:29;;;;;;;;;;;15.70;99.90;;;;;;5091452;28;19920;-91
2021/07/05 07:24:54;;;;;;;;;;;15.60;99.90;;;;;;5068657;28;20449;-92
2021/07/05 07:27:20;;;;;;;;;;;15.60;99.90;;;;;;5056603;28;20269;-92
2021/07/05 07:29:46;;;;;;;;;;;15.60;99.90;;;;;;5106608;28;19955;-93
2021/07/05 07:32:12;;;;;;;;;;;15.60;99.90;;;;;;5090031;28;19924;-93
2021/07/05 07:34:39;;;;;;;;;;;15.70;99.90;;;;;;5072441;28;19924;-93
2021/07/05 07:37:06;;;;;;;;;;;15.70;99.90;;;;;;5072311;28;19920;-93
2021/07/05 07:39:38;;;;;;;;;;;15.80;99.90;;;;;;5072851;28;19965;-92
2021/07/05 07:42:04;;;;;;;;;;;15.80;99.90;;;;;;5073312;28;20437;-92
2021/07/05 07:44:31;;;;;;;;;;;15.80;99.90;;;;;;5088951;28;20031;-92
2021/07/05 07:46:57;;;;;;;;;;;15.80;99.90;;;;;;5089421;28;19927;-93
2021/07/05 07:49:22;;;;;;;;;;;15.80;99.90;;;;;;5073324;28;19924;-92
2021/07/05 07:51:48;;;;;;;;;;;15.90;99.90;;;;;;5090879;28;20436;-92
2021/07/05 07:54:14;;;;;;;;;;;16.00;99.90;;;;;;5073879;28;19920;-92
2021/07/05 07:56:40;;;;;;;;;;;16.00;99.90;;;;;;5055989;28;19931;-93
2021/07/05 07:59:05;;;;;;;;;;;16.00;99.90;;;;;;5070044;28;19928;-93
2021/07/05 08:01:31;;;;;;;;;;;16.00;99.90;;;;;;5089468;28;19988;-93
2021/07/05 08:03:57;;;;;;;;;;;16.00;99.90;;;;;;5072998;28;19924;-93
2021/07/05 08:06:23;;;;;;;;;;;16.00;99.90;;;;;;5090466;28;19924;-92
2021/07/05 08:08:52;;;;;;;;;;;16.10;99.90;;;;;;5090540;28;20296;-93
2021/07/05 08:11:18;;;;;;;;;;;16.10;99.90;;;;;;5073240;28;19924;-93
2021/07/05 08:13:44;;;;;;;;;;;16.20;99.90;;;;;;5091386;28;19931;-92
2021/07/05 08:16:10;;;;;;;;;;;16.30;99.90;;;;;;5088785;28;19932;-94
2021/07/05 08:18:36;;;;;;;;;;;16.30;99.90;;;;;;5089105;28;19959;-91
2021/07/05 08:21:03;;;;;;;;;;;16.30;99.90;;;;;;5090059;28;19979;-91
2021/07/05 08:23:29;;;;;;;;;;;16.30;99.90;;;;;;5097778;28;19967;-91
2021/07/05 08:25:54;;;;;;;;;;;16.30;99.90;;;;;;5087987;28;19963;-91
2021/07/05 08:28:23;;;;;;;;;;;16.30;99.90;;;;;;5071670;28;19928;-91
2021/07/05 08:30:49;;;;;;;;;;;16.30;99.90;;;;;;5088982;28;19928;-90
2021/07/05 08:33:15;;;;;;;;;;;16.40;99.90;;;;;;5089493;28;20434;-91
2021/07/05 08:35:40;;;;;;;;;;;16.40;99.90;;;;;;5072092;28;19924;-91
2021/07/05 08:38:06;;;;;;;;;;;16.40;99.90;;;;;;5089011;28;19931;-91
2021/07/05 08:40:32;;;;;;;;;;;16.40;99.90;;;;;;5088873;28;19973;-90
2021/07/05 08:42:59;;;;;;;;;;;16.50;99.90;;;;;;5089790;28;19963;-91
2021/07/05 08:45:26;;;;;;;;;;;16.40;99.90;;;;;;5085768;28;19944;-89
2021/07/05 08:47:53;;;;;;;;;;;16.60;99.90;;;;;;5088438;28;20113;-89
2021/07/05 08:50:20;;;;;;;;;;;16.50;99.90;;;;;;5088804;28;19955;-89
2021/07/05 08:52:45;;;;;;;;;;;16.60;99.90;;;;;;5089126;28;19978;-89
2021/07/05 08:55:13;;;;;;;;;;;16.70;99.90;;;;;;5068993;28;19924;-91
2021/07/05 08:57:40;;;;;;;;;;;16.70;99.90;;;;;;5089016;28;19969;-91
2021/07/05 09:00:08;;;;;;;;;;;16.80;99.90;;;;;;5104576;28;20849;-90
2021/07/05 09:02:34;;;;;;;;;;;16.90;99.90;;;;;;5089594;28;19927;-92
2021/07/05 09:05:00;;;;;;;;;;;16.90;99.90;;;;;;5090871;28;19992;-90
2021/07/05 09:07:25;;;;;;;;;;;16.90;99.90;;;;;;5082360;28;20020;-89
2021/07/05 09:10:00;;;;;;;;;;;16.90;99.90;;;;;;5070662;28;20404;-89
2021/07/05 09:12:26;;;;;;;;;;;16.90;99.90;;;;;;5087014;28;20464;-89
2021/07/05 09:15:11;;;;;;;;;;;17.00;99.90;;;;;;5086881;28;19923;-89
2021/07/05 09:17:37;;;;;;;;;;;17.00;99.90;;;;;;5071010;28;19924;-89
2021/07/05 09:20:18;;;;;;;;;;;17.00;99.90;;;;;;5087444;28;20361;-89
2021/07/05 09:23:02;;;;;;;;;;;17.10;99.90;;;;;;5088812;28;20333;-89
2021/07/05 09:25:32;;;;;;;;;;;17.20;99.90;;;;;;5088346;28;19946;-89
2021/07/05 09:27:58;;;;;;;;;;;17.30;99.90;;;;;;5089084;28;19946;-88
2021/07/05 09:30:33;;;;;;;;;;;17.30;99.90;;;;;;5088961;28;20462;-89
2021/07/05 09:33:14;;;;;;;;;;;17.30;99.90;;;;;;5072552;28;20019;-89
2021/07/05 09:35:40;;;;;;;;;;;17.30;99.90;;;;;;5089001;28;19995;-89
2021/07/05 09:38:06;;;;;;;;;;;17.20;99.90;;;;;;5059875;28;20026;-89
2021/07/05 09:40:31;;;;;;;;;;;17.30;99.90;;;;;;5076403;28;19920;-89
2021/07/05 09:42:57;;;;;;;;;;;17.40;99.90;;;;;;5076488;28;19956;-89
2021/07/05 09:45:23;;;;;;;;;;;17.60;99.90;;;;;;5076198;28;19924;-89
2021/07/05 09:48:08;;;;;;;;;;;17.70;99.90;;;;;;5092828;28;20375;-89
2021/07/05 09:50:33;;;;;;;;;;;17.80;99.90;;;;;;5092948;28;19928;-88
2021/07/05 09:53:01;;;;;;;;;;;17.90;99.90;;;;;;5092858;28;19946;-88
2021/07/05 09:55:32;;;;;;;;;;;18.10;99.90;;;;;;5092906;28;19920;-88
2021/07/05 09:57:58;;;;;;;;;;;18.20;99.90;;;;;;5094287;28;19920;-88
2021/07/05 10:00:25;;;;;;;;;;;18.20;99.90;;;;;;5075367;28;19931;-88
2021/07/05 10:03:02;;;;;;;;;;;18.20;99.90;;;;;;5092920;28;19924;-88
2021/07/05 10:05:31;;;;;;;;;;;18.20;99.90;;;;;;5092607;28;20318;-88
2021/07/05 10:08:19;;;;;;;;;;;18.30;99.90;;;;;;5092843;28;19938;-88
2021/07/05 10:10:46;;;;;;;;;;;18.30;99.90;;;;;;5092485;28;20356;-88
2021/07/05 10:13:15;;;;;;;;;;;18.30;99.90;;;;;;5092402;28;19955;-88
2021/07/05 10:15:41;;;;;;;;;;;18.30;99.90;;;;;;5092503;28;19931;-88
2021/07/05 10:18:07;;;;;;;;;;;18.50;99.90;;;;;;5109146;28;19927;-88
2021/07/05 10:20:34;;;;;;;;;;;18.60;99.90;;;;;;5075442;28;19923;-88
2021/07/05 10:23:02;;;;;;;;;;;18.70;99.90;;;;;;5092337;28;19928;-88
2021/07/05 10:25:29;;;;;;;;;;;18.70;99.90;;;;;;5093169;28;19920;-88
2021/07/05 10:27:55;;;;;;;;;;;18.60;99.90;;;;;;5091938;28;20335;-88
2021/07/05 10:30:21;;;;;;;;;;;18.50;99.90;;;;;;5075092;28;20019;-87
2021/07/05 10:32:47;;;;;;;;;;;18.40;99.90;;;;;;5092547;28;19945;-88
2021/07/05 10:35:14;;;;;;;;;;;18.20;99.90;;;;;;5092977;28;19916;-88
2021/07/05 10:37:45;;;;;;;;;;;18.10;99.90;;;;;;5125643;27;19928;-87
2021/07/05 10:40:11;;;;;;;;;;;18.00;99.90;;;;;;5091852;28;19924;-88
2021/07/05 10:42:39;;;;;;;;;;;17.90;99.90;;;;;;5075080;28;20409;-88
2021/07/05 10:45:12;;;;;;;;;;;18.00;99.90;;;;;;5091930;28;19924;-88
2021/07/05 10:47:42;;;;;;;;;;;18.10;99.90;;;;;;5090704;28;19932;-87
2021/07/05 10:50:09;;;;;;;;;;;18.20;99.90;;;;;;5091917;28;19994;-88
2021/07/05 10:52:48;;;;;;;;;;;18.30;99.90;;;;;;5075025;28;20030;-88
2021/07/05 10:55:37;;;;;;;;;;;18.30;99.90;;;;;;5091111;28;20006;-86
2021/07/05 10:58:03;;;;;;;;;;;18.40;99.90;;;;;;5080955;28;19924;-88
2021/07/05 11:00:39;;;;;;;;;;;18.50;99.90;;;;;;5091304;28;19924;-88
2021/07/05 11:03:05;;;;;;;;;;;18.60;99.90;;;;;;5091761;28;19927;-87
2021/07/05 11:05:41;;;;;;;;;;;18.70;99.90;;;;;;5091173;28;20299;-87
2021/07/05 11:08:21;;;;;;;;;;;18.80;99.90;;;;;;5092350;28;19996;-88
2021/07/05 11:10:47;;;;;;;;;;;18.90;99.90;;;;;;5091050;28;20042;-87
2021/07/05 11:13:16;;;;;;;;;;;19.00;99.90;;;;;;5074543;28;19920;-87
2021/07/05 11:15:58;;;;;;;;;;;19.10;99.90;;;;;;5090712;28;20367;-87
2021/07/05 11:18:53;;;;;;;;;;;19.30;99.90;;;;;;5090848;28;19924;-87
2021/07/05 11:21:21;;;;;;;;;;;19.50;99.90;;;;;;5072956;28;19920;-87
2021/07/05 11:23:57;;;;;;;;;;;19.50;99.90;;;;;;5090766;28;20031;-87
2021/07/05 11:26:30;;;;;;;;;;;19.60;99.90;;;;;;5090769;28;20015;-87
2021/07/05 11:29:14;;;;;;;;;;;19.60;99.90;;;;;;5091678;28;19924;-87
2021/07/05 11:31:57;;;;;;;;;;;19.60;99.90;;;;;;5090823;28;19951;-87
2021/07/05 11:34:25;;;;;;;;;;;19.60;99.90;;;;;;5089130;28;19924;-88
2021/07/05 11:37:11;;;;;;;;;;;19.70;99.90;;;;;;5089966;28;20351;-88
2021/07/05 11:39:44;;;;;;;;;;;19.60;99.90;;;;;;5086505;28;19920;-87
2021/07/05 11:42:11;;;;;;;;;;;19.60;99.90;;;;;;5090358;28;20365;-87
2021/07/05 11:44:51;;;;;;;;;;;19.60;99.90;;;;;;5074935;28;19950;-87
2021/07/05 12:34:37;;;;;;;;;;;18.90;99.90;;;;;;5076816;28;19931;-90
2021/07/05 12:37:04;;;;;;;;;;;18.90;99.90;;;;;;5087809;28;20347;-89
2021/07/05 12:39:30;;;;;;;;;;;19.10;99.90;;;;;;5089637;28;19924;-90
2021/07/05 12:41:56;;;;;;;;;;;19.20;99.90;;;;;;5089336;28;19947;-90
2021/07/05 12:44:22;;;;;;;;;;;19.30;99.90;;;;;;5100140;28;20384;-89
2021/07/05 12:46:48;;;;;;;;;;;19.40;99.90;;;;;;5072412;28;19920;-89
2021/07/05 12:49:14;;;;;;;;;;;19.50;99.90;;;;;;5072962;28;20295;-89
2021/07/05 12:51:41;;;;;;;;;;;19.60;99.90;;;;;;5090557;28;20015;-88
2021/07/05 12:54:17;;;;;;;;;;;19.60;99.90;;;;;;5072802;28;20436;-90
2021/07/05 12:56:43;;;;;;;;;;;19.50;99.90;;;;;;5089136;28;19947;-88
2021/07/05 12:59:15;;;;;;;;;;;19.50;99.90;;;;;;5089145;28;20375;-88
2021/07/05 13:01:41;;;;;;;;;;;19.40;99.90;;;;;;5089435;28;19946;-88
2021/07/05 13:04:08;;;;;;;;;;;19.40;99.90;;;;;;5072588;28;19973;-88
2021/07/05 13:06:36;;;;;;;;;;;19.30;99.90;;;;;;5089012;28;19962;-88
2021/07/05 13:09:04;;;;;;;;;;;19.30;99.90;;;;;;5087089;28;19924;-87
2021/07/05 13:11:50;;;;;;;;;;;19.30;99.90;;;;;;5084652;28;19963;-87
2021/07/05 13:14:22;;;;;;;;;;;19.40;99.90;;;;;;5123253;28;19924;-89
2021/07/05 13:16:48;;;;;;;;;;;19.40;99.90;;;;;;5071483;28;19923;-88
2021/07/05 13:19:18;;;;;;;;;;;19.40;99.90;;;;;;5083100;28;20431;-88
2021/07/05 13:21:45;;;;;;;;;;;19.40;99.90;;;;;;5085994;28;19920;-88
2021/07/05 13:24:32;;;;;;;;;;;19.40;99.90;;;;;;5087988;28;20014;-89
2021/07/05 13:30:21;;;;;;;;;;;19.30;99.90;;;;;;5082515;28;19935;-89
2021/07/05 13:32:58;;;;;;;;;;;19.30;99.90;;;;;;5088475;28;19924;-89
2021/07/05 13:35:25;;;;;;;;;;;19.30;99.90;;;;;;5089624;28;20085;-89
2021/07/05 13:37:56;;;;;;;;;;;19.30;99.90;;;;;;5086477;28;19928;-90
2021/07/05 13:40:22;;;;;;;;;;;19.20;99.90;;;;;;5073394;28;20279;-91
2021/07/05 13:42:48;;;;;;;;;;;19.10;99.90;;;;;;5089242;28;19920;-90
2021/07/05 13:45:21;;;;;;;;;;;19.00;99.90;;;;;;5089474;28;19920;-90
2021/07/05 13:47:51;;;;;;;;;;;18.90;99.90;;;;;;5089551;28;19934;-90
2021/07/05 13:50:21;;;;;;;;;;;18.90;99.90;;;;;;5072985;28;19931;-87
2021/07/05 13:52:49;;;;;;;;;;;19.10;99.90;;;;;;5090275;28;19920;-90
2021/07/05 13:55:34;;;;;;;;;;;19.20;99.90;;;;;;5089304;28;20007;-89
2021/07/05 13:57:59;;;;;;;;;;;19.30;99.90;;;;;;5089383;28;19985;-92
2021/07/05 14:00:26;;;;;;;;;;;19.30;99.90;;;;;;5073253;28;19923;-89
2021/07/05 14:02:51;;;;;;;;;;;19.40;99.90;;;;;;5089519;28;19931;-90
2021/07/05 14:05:18;;;;;;;;;;;19.40;99.90;;;;;;5056412;28;20106;-89
2021/07/05 14:07:44;;;;;;;;;;;19.40;99.90;;;;;;5089831;28;19920;-89
2021/07/05 14:10:10;;;;;;;;;;;19.40;99.90;;;;;;5072199;28;19931;-88
2021/07/05 14:12:36;;;;;;;;;;;19.40;99.90;;;;;;5088742;28;19935;-88
2021/07/05 14:15:02;;;;;;;;;;;19.30;99.90;;;;;;5089349;28;19924;-89
2021/07/05 14:17:27;;;;;;;;;;;19.30;99.90;;;;;;5089850;28;20383;-89
2021/07/05 14:19:53;;;;;;;;;;;19.30;99.90;;;;;;5072198;28;19973;-89
2021/07/05 14:22:19;;;;;;;;;;;19.30;99.90;;;;;;5072106;28;19927;-89
2021/07/05 14:24:45;;;;;;;;;;;19.30;99.90;;;;;;5075191;28;19920;-89
2021/07/05 14:27:11;;;;;;;;;;;19.30;99.90;;;;;;5074356;28;19924;-89
2021/07/05 14:29:38;;;;;;;;;;;19.40;99.90;;;;;;5069602;28;19927;-90
2021/07/05 14:32:03;;;;;;;;;;;19.40;99.90;;;;;;5073735;28;19924;-89
2021/07/05 14:34:29;;;;;;;;;;;19.50;99.90;;;;;;5067587;28;20431;-90
2021/07/05 14:36:55;;;;;;;;;;;19.50;99.90;;;;;;5074943;28;19928;-90
2021/07/05 14:39:21;;;;;;;;;;;19.60;99.90;;;;;;5075045;28;19928;-90
2021/07/05 14:42:15;;;;;;;;;;;19.50;99.90;;;;;;5093129;28;19920;-95
2021/07/05 14:44:43;;;;;;;;;;;19.50;99.90;;;;;;5094213;28;19924;-91
2021/07/05 14:47:09;;;;;;;;;;;19.50;99.90;;;;;;5078685;28;19920;-92
2021/07/05 14:49:35;;;;;;;;;;;19.50;99.90;;;;;;5093483;28;19931;-91
2021/07/05 14:52:01;;;;;;;;;;;19.50;99.90;;;;;;5093597;28;20555;-90
2021/07/05 14:54:27;;;;;;;;;;;19.50;99.90;;;;;;5092904;28;20877;-91
2021/07/05 14:56:52;;;;;;;;;;;19.60;99.90;;;;;;5093249;28;19942;-91
2021/07/05 14:59:18;;;;;;;;;;;19.50;99.90;;;;;;5076088;28;19947;-89
2021/07/05 15:01:44;;;;;;;;;;;19.60;99.90;;;;;;5121733;27;19928;-91
2021/07/05 15:04:09;;;;;;;;;;;19.60;99.90;;;;;;5076734;28;19930;-89
2021/07/05 15:06:35;;;;;;;;;;;19.60;99.90;;;;;;5092057;28;20496;-85
2021/07/05 15:09:01;;;;;;;;;;;19.60;99.90;;;;;;5092081;28;19932;-89
2021/07/05 15:11:26;;;;;;;;;;;19.60;99.90;;;;;;5093069;28;20446;-89